Terminal Aerodrome Forecast
Issued by NWS

Current Version | Previous Version | Graphics & Text | Print | Product List | Glossary On
Versions: 1 2 3 4 5 6 7 8 9 10 11 12 13 14 15 16 17 18 19
000
FTUS41 KILN 290500
TAFLUK
TAF
KLUK 290531Z 2906/3006 06003KT P6SM BKN250
      TEMPO 2908/2912 5SM BR
     FM291300 13006KT P6SM SCT100 BKN250
     FM300000 VRB03KT P6SM SCT060 BKN150=

USA.gov is the U.S. government's official web portal to all federal, state and local government web resources and services.